createdAt,value
2023-07-23T00:05:46.174Z,87.00
2023-07-23T00:08:14.729Z,88.80
2023-07-23T00:13:10.130Z,89.70
2023-07-23T00:20:32.592Z,90.20
2023-07-23T00:27:54.820Z,89.60
2023-07-23T00:32:49.694Z,89.90
2023-07-23T00:35:16.995Z,90.20
2023-07-23T00:40:12.856Z,90.30
2023-07-23T00:47:36.166Z,90.80
2023-07-23T00:50:04.733Z,90.50
2023-07-23T00:55:00.536Z,90.50
2023-07-23T00:57:28.105Z,90.60
2023-07-23T00:59:57.914Z,90.70
2023-07-23T01:02:28.885Z,90.90
2023-07-23T01:04:57.138Z,90.90
2023-07-23T01:07:26.998Z,90.90
2023-07-23T01:09:55.155Z,91.20
2023-07-23T01:12:22.814Z,91.70
2023-07-23T01:14:51.014Z,91.60
2023-07-23T01:17:20.900Z,91.60
2023-07-23T01:20:00.283Z,91.70
2023-07-23T01:22:27.522Z,91.60
2023-07-23T01:24:55.152Z,91.80
2023-07-23T01:34:46.263Z,91.70
2023-07-23T01:37:15.103Z,91.70
2023-07-23T01:39:44.608Z,91.80
2023-07-23T01:42:13.187Z,91.10
2023-07-23T01:44:40.497Z,91.60
2023-07-23T01:49:35.298Z,91.90
2023-07-23T01:54:30.206Z,92.40
2023-07-23T02:04:20.451Z,92.30
2023-07-23T02:09:21.540Z,92.30
2023-07-23T02:11:48.816Z,92.10
2023-07-23T02:19:12.828Z,93.00
2023-07-23T02:26:35.243Z,92.30
2023-07-23T02:31:30.366Z,92.20
2023-07-23T02:33:57.971Z,92.60
2023-07-23T02:53:38.070Z,93.30
2023-07-23T02:58:33.034Z,92.80
2023-07-23T03:03:28.122Z,92.90
2023-07-23T03:10:50.471Z,93.30
2023-07-23T03:23:08.157Z,93.10
2023-07-23T03:32:59.347Z,93.50
2023-07-23T03:35:26.626Z,93.50
2023-07-23T03:37:54.730Z,93.20
2023-07-23T03:42:49.543Z,93.40
2023-07-23T03:52:39.847Z,93.70
2023-07-23T03:55:07.408Z,94.40
2023-07-23T04:05:06.876Z,94.30
2023-07-23T04:12:34.899Z,94.60
2023-07-23T04:15:05.999Z,94.00
2023-07-23T04:17:33.900Z,94.30
2023-07-23T04:22:29.426Z,94.00
2023-07-23T04:49:33.992Z,95.60
2023-07-23T05:24:04.269Z,96.10
2023-07-23T05:33:54.876Z,95.80
2023-07-23T05:36:22.083Z,95.50
2023-07-23T05:41:16.974Z,95.30
2023-07-23T05:43:44.128Z,95.40
2023-07-23T05:56:01.805Z,95.30
2023-07-23T05:58:29.246Z,94.50
2023-07-23T06:03:24.375Z,93.90
2023-07-23T06:18:09.336Z,92.10
2023-07-23T06:27:59.624Z,91.80
2023-07-23T06:40:17.407Z,91.60
2023-07-23T06:42:45.700Z,91.80
2023-07-23T06:55:06.038Z,90.60
2023-07-23T07:04:56.187Z,90.10
2023-07-23T07:07:23.662Z,90.10
2023-07-23T07:27:09.516Z,87.30
2023-07-23T07:29:41.269Z,87.40
2023-07-23T07:32:10.514Z,86.50
2023-07-23T07:42:01.497Z,87.20
2023-07-23T07:44:32.566Z,86.30
2023-07-23T07:56:52.280Z,84.90
2023-07-23T08:01:47.804Z,82.80
2023-07-23T08:06:44.383Z,83.40
2023-07-23T08:09:13.595Z,83.60
2023-07-23T08:11:41.872Z,82.20
2023-07-23T08:14:10.821Z,81.90
2023-07-23T08:19:06.311Z,80.80
2023-07-23T08:24:02.610Z,80.10
2023-07-23T08:26:35.654Z,78.80
2023-07-23T08:29:09.268Z,77.80
2023-07-23T08:31:37.505Z,77.20
2023-07-23T08:34:05.286Z,76.50
2023-07-23T08:36:33.145Z,75.90
2023-07-23T08:45:10.231Z,75.20
2023-07-23T08:47:39.851Z,73.70
2023-07-23T08:50:07.966Z,72.40
2023-07-23T08:55:04.886Z,71.60
2023-07-23T08:57:34.805Z,70.60
2023-07-23T09:00:04.062Z,69.00
2023-07-23T09:02:33.681Z,68.70
2023-07-23T09:07:28.830Z,67.30
2023-07-23T09:09:56.217Z,66.90
2023-07-23T09:12:23.362Z,65.70
2023-07-23T09:17:22.495Z,65.60
2023-07-23T09:27:17.509Z,65.80
2023-07-23T09:32:26.986Z,64.80
2023-07-23T09:35:00.128Z,63.20
2023-07-23T09:37:28.507Z,62.50
2023-07-23T09:40:00.301Z,62.80
2023-07-23T09:45:02.372Z,62.60
2023-07-23T09:52:38.251Z,61.30
2023-07-23T09:55:07.819Z,61.70
2023-07-23T09:57:37.697Z,62.10
2023-07-23T10:02:46.844Z,60.00
2023-07-23T10:05:18.554Z,58.90
2023-07-23T10:07:49.094Z,59.40
2023-07-23T10:10:17.482Z,58.30
2023-07-23T10:12:44.955Z,57.80
2023-07-23T10:15:12.422Z,55.50
2023-07-23T10:17:52.163Z,54.20
2023-07-23T10:20:20.652Z,54.00
2023-07-23T10:22:48.955Z,54.20
2023-07-23T10:25:35.197Z,55.50
2023-07-23T10:28:09.733Z,55.70
2023-07-23T10:30:38.817Z,55.20
2023-07-23T10:33:12.596Z,54.70
2023-07-23T10:36:01.345Z,54.10
2023-07-23T10:38:35.196Z,54.50
2023-07-23T10:41:03.980Z,55.60
2023-07-23T10:43:45.726Z,55.20
2023-07-23T10:46:21.517Z,55.30
2023-07-23T10:48:53.515Z,56.00
2023-07-23T10:51:23.720Z,56.30
2023-07-23T10:54:07.715Z,56.50
2023-07-23T10:59:20.891Z,56.90
2023-07-23T11:01:52.581Z,58.10
2023-07-23T11:04:27.843Z,58.70
2023-07-23T11:07:06.195Z,58.70
2023-07-23T11:09:36.697Z,59.20
2023-07-23T11:12:09.161Z,59.80
2023-07-23T11:14:37.093Z,60.30
2023-07-23T11:17:05.769Z,60.00
2023-07-23T11:19:34.080Z,60.40
2023-07-23T11:22:06.237Z,61.00
2023-07-23T11:24:33.800Z,60.70
2023-07-23T11:27:05.271Z,61.30
2023-07-23T11:29:35.223Z,63.10
2023-07-23T11:32:04.849Z,62.40
2023-07-23T11:34:33.829Z,63.10
2023-07-23T11:37:01.218Z,63.30
2023-07-23T11:39:28.462Z,63.40
2023-07-23T11:41:55.881Z,64.20
2023-07-23T11:44:23.691Z,64.00
2023-07-23T11:49:26.955Z,63.60
2023-07-23T11:56:52.918Z,63.50
2023-07-23T11:59:20.288Z,63.00
2023-07-23T12:01:47.807Z,61.30
2023-07-23T12:04:15.387Z,61.30
2023-07-23T12:06:42.677Z,62.40
2023-07-23T12:09:13.006Z,62.10
2023-07-23T12:11:43.961Z,62.40
2023-07-23T12:14:16.208Z,62.90
2023-07-23T12:16:48.903Z,61.50
2023-07-23T12:19:18.918Z,63.30
2023-07-23T12:21:55.805Z,62.20
2023-07-23T12:24:27.858Z,61.20
2023-07-23T12:27:00.724Z,61.60
2023-07-23T12:29:29.862Z,61.90
2023-07-23T12:32:17.037Z,63.30
2023-07-23T12:34:49.956Z,59.60
2023-07-23T12:37:18.008Z,61.10
2023-07-23T12:39:49.376Z,61.70
2023-07-23T12:42:16.705Z,59.10
2023-07-23T12:44:44.245Z,59.90
2023-07-23T12:47:41.054Z,59.70
2023-07-23T12:52:37.241Z,57.70
2023-07-23T12:55:05.506Z,58.00
2023-07-23T12:57:33.082Z,57.70
2023-07-23T13:00:00.246Z,60.20
2023-07-23T13:04:55.021Z,59.40
2023-07-23T13:07:22.182Z,59.70
2023-07-23T13:09:51.242Z,60.60
2023-07-23T13:12:18.378Z,59.70
2023-07-23T13:14:45.497Z,58.80
2023-07-23T13:17:12.787Z,59.50
2023-07-23T13:19:40.451Z,59.30
2023-07-23T13:22:07.826Z,59.20
2023-07-23T13:24:35.045Z,59.60
2023-07-23T13:27:02.181Z,59.00
2023-07-23T13:31:56.908Z,58.70
2023-07-23T13:36:51.958Z,59.80
2023-07-23T13:39:19.249Z,58.80
2023-07-23T13:41:46.422Z,59.20
2023-07-23T13:46:41.368Z,60.70
2023-07-23T13:49:11.761Z,60.80
2023-07-23T13:51:39.158Z,61.20
2023-07-23T13:54:06.290Z,60.40
2023-07-23T13:56:33.549Z,61.30
2023-07-23T13:59:00.897Z,61.60
2023-07-23T14:01:28.751Z,61.80
2023-07-23T14:03:56.095Z,62.00
2023-07-23T14:13:47.094Z,62.20
2023-07-23T14:16:14.459Z,62.80
2023-07-23T14:18:41.657Z,63.00
2023-07-23T14:21:09.199Z,63.40
2023-07-23T14:23:36.748Z,63.20
2023-07-23T14:26:04.110Z,62.80
2023-07-23T14:28:31.414Z,62.80
2023-07-23T14:30:58.608Z,63.20
2023-07-23T14:33:25.816Z,63.30
2023-07-23T14:38:22.200Z,63.30
2023-07-23T14:43:17.604Z,63.20
2023-07-23T14:45:44.718Z,62.20
2023-07-23T14:48:11.937Z,62.00
2023-07-23T14:53:06.627Z,61.60
2023-07-23T14:55:34.469Z,62.00
2023-07-23T14:58:01.760Z,62.10
2023-07-23T15:00:29.499Z,61.90
2023-07-23T15:02:57.165Z,61.40
2023-07-23T15:05:25.168Z,61.20
2023-07-23T15:10:22.401Z,61.20
2023-07-23T15:12:50.181Z,60.90
2023-07-23T15:15:18.149Z,60.90
2023-07-23T15:17:45.823Z,59.90
2023-07-23T15:20:14.314Z,59.30
2023-07-23T15:25:22.620Z,59.80
2023-07-23T15:27:52.766Z,60.00
2023-07-23T15:37:43.400Z,59.40
2023-07-23T15:40:14.750Z,59.60
2023-07-23T15:42:42.178Z,59.60
2023-07-23T15:45:10.082Z,59.60
2023-07-23T15:47:37.260Z,59.50
2023-07-23T15:50:06.937Z,59.50
2023-07-23T15:52:34.120Z,59.70
2023-07-23T15:55:01.518Z,59.50
2023-07-23T15:57:28.772Z,59.70
2023-07-23T15:59:56.091Z,59.70
2023-07-23T16:02:23.325Z,59.60
2023-07-23T16:04:50.616Z,59.20
2023-07-23T16:07:17.975Z,59.00
2023-07-23T16:09:45.214Z,59.90
2023-07-23T16:12:12.699Z,59.80
2023-07-23T16:14:39.970Z,60.10
2023-07-23T16:17:07.295Z,60.00
2023-07-23T16:19:34.568Z,60.10
2023-07-23T16:22:01.775Z,60.00
2023-07-23T16:24:29.089Z,61.20
2023-07-23T16:26:56.386Z,61.30
2023-07-23T16:29:23.752Z,61.00
2023-07-23T16:31:51.471Z,61.70
2023-07-23T16:34:19.267Z,61.00
2023-07-23T16:36:50.805Z,60.60
2023-07-23T16:39:19.800Z,60.80
2023-07-23T16:41:47.823Z,60.60
2023-07-23T16:44:15.378Z,60.00
2023-07-23T16:46:42.684Z,60.20
2023-07-23T16:49:09.813Z,60.30
2023-07-23T16:51:37.008Z,60.60
2023-07-23T16:54:04.501Z,60.50
2023-07-23T16:56:32.275Z,63.90
2023-07-23T16:58:59.643Z,61.00
2023-07-23T17:01:27.639Z,61.20
2023-07-23T17:03:55.031Z,61.20
2023-07-23T17:06:24.201Z,61.20
2023-07-23T17:08:51.500Z,61.80
2023-07-23T17:11:26.188Z,61.80
2023-07-23T17:13:53.934Z,61.70
2023-07-23T17:16:21.182Z,62.30
2023-07-23T17:18:48.641Z,61.80
2023-07-23T17:21:15.989Z,62.40
2023-07-23T17:23:43.449Z,62.60
2023-07-23T17:26:10.517Z,62.50
2023-07-23T17:28:37.959Z,62.80
2023-07-23T17:31:05.164Z,62.70
2023-07-23T17:33:32.725Z,63.00
2023-07-23T17:35:59.962Z,63.70
2023-07-23T17:38:27.128Z,64.10
2023-07-23T17:40:54.506Z,64.70
2023-07-23T17:43:21.655Z,65.10
2023-07-23T17:45:48.854Z,65.10
2023-07-23T17:48:16.169Z,66.10
2023-07-23T17:50:43.391Z,66.60
2023-07-23T17:53:10.554Z,67.20
2023-07-23T17:55:37.709Z,67.50
2023-07-23T17:58:05.108Z,67.70
2023-07-23T18:00:32.370Z,68.10
2023-07-23T18:03:00.423Z,67.90
2023-07-23T18:05:27.625Z,67.90
2023-07-23T18:07:55.550Z,68.60
2023-07-23T18:10:22.938Z,68.60
2023-07-23T18:12:51.602Z,68.50
2023-07-23T18:15:18.874Z,68.50
2023-07-23T18:17:46.355Z,68.50
2023-07-23T18:20:13.751Z,68.70
2023-07-23T18:22:41.253Z,68.10
2023-07-23T18:25:09.336Z,69.10
2023-07-23T18:27:37.200Z,69.40
2023-07-23T18:30:05.214Z,69.80
2023-07-23T18:32:32.514Z,70.20
2023-07-23T18:34:59.864Z,70.00
2023-07-23T18:37:28.352Z,70.20
2023-07-23T18:39:55.690Z,70.60
2023-07-23T18:42:22.885Z,70.20
2023-07-23T18:44:50.438Z,70.90
2023-07-23T18:47:18.749Z,71.10
2023-07-23T18:49:46.364Z,71.30
2023-07-23T18:52:13.454Z,71.70
2023-07-23T18:54:40.604Z,71.60
2023-07-23T18:57:08.939Z,71.50
2023-07-23T18:59:36.099Z,72.00
2023-07-23T19:02:03.344Z,72.30
2023-07-23T19:04:46.645Z,72.30
2023-07-23T19:07:15.477Z,73.10
2023-07-23T19:09:42.817Z,73.10
2023-07-23T19:12:09.963Z,73.00
2023-07-23T19:14:37.238Z,73.40
2023-07-23T19:17:04.780Z,74.50
2023-07-23T19:19:32.464Z,73.90
2023-07-23T19:21:59.840Z,74.40
2023-07-23T19:24:27.019Z,74.60
2023-07-23T19:26:54.188Z,74.80
2023-07-23T19:29:21.332Z,74.50
2023-07-23T19:31:48.516Z,75.70
2023-07-23T19:34:15.630Z,75.70
2023-07-23T19:36:42.893Z,75.30
2023-07-23T19:39:10.082Z,75.30
2023-07-23T19:41:39.568Z,75.40
2023-07-23T19:44:06.811Z,75.70
2023-07-23T19:46:35.264Z,76.10
2023-07-23T19:49:02.668Z,76.20
2023-07-23T19:51:29.785Z,76.30
2023-07-23T19:53:57.563Z,76.10
2023-07-23T19:56:24.793Z,76.20
2023-07-23T19:58:52.009Z,76.60
2023-07-23T20:01:19.344Z,77.60
2023-07-23T20:03:50.698Z,76.70
2023-07-23T20:06:17.992Z,76.80
2023-07-23T20:08:45.130Z,77.30
2023-07-23T20:11:13.495Z,77.30
2023-07-23T20:13:40.662Z,77.40
2023-07-23T20:16:08.544Z,77.40
2023-07-23T20:18:35.806Z,77.50
2023-07-23T20:21:03.013Z,77.60
2023-07-23T20:23:30.143Z,77.90
2023-07-23T20:25:58.746Z,78.40
2023-07-23T20:28:26.676Z,78.90
2023-07-23T20:30:54.850Z,78.40
2023-07-23T20:33:22.811Z,78.50
2023-07-23T20:35:59.197Z,80.80
2023-07-23T20:38:28.873Z,78.70
2023-07-23T20:40:56.593Z,78.80
2023-07-23T20:43:23.934Z,79.70
2023-07-23T20:45:51.063Z,78.80
2023-07-23T20:48:18.318Z,79.00
2023-07-23T20:50:45.845Z,78.90
2023-07-23T20:53:13.230Z,79.20
2023-07-23T20:55:40.384Z,80.30
2023-07-23T20:58:07.716Z,78.40
2023-07-23T21:00:35.588Z,79.60
2023-07-23T21:03:02.876Z,78.10
2023-07-23T21:05:30.104Z,78.80
2023-07-23T21:07:57.404Z,78.90
2023-07-23T21:10:24.588Z,79.30
2023-07-23T21:12:51.737Z,79.90
2023-07-23T21:15:19.060Z,80.00
2023-07-23T21:20:13.757Z,80.10
2023-07-23T21:22:40.893Z,80.20
2023-07-23T21:25:08.366Z,79.90
2023-07-23T21:30:03.994Z,80.00
2023-07-23T21:32:31.276Z,80.10
2023-07-23T21:34:58.455Z,80.10
2023-07-23T21:37:27.420Z,80.00
2023-07-23T21:39:54.640Z,80.00
2023-07-23T21:42:21.790Z,80.50
2023-07-23T21:47:16.640Z,80.20
2023-07-23T21:49:43.863Z,80.80
2023-07-23T21:52:11.040Z,80.60
2023-07-23T21:54:41.113Z,80.50
2023-07-23T21:57:08.961Z,80.90
2023-07-23T21:59:36.336Z,81.20
2023-07-23T22:02:03.662Z,81.60
2023-07-23T22:04:30.913Z,82.80
2023-07-23T22:06:58.197Z,81.70
2023-07-23T22:09:25.666Z,81.60
2023-07-23T22:11:52.820Z,81.70
2023-07-23T22:14:19.938Z,82.40
2023-07-23T22:16:47.243Z,82.50
2023-07-23T22:19:14.483Z,82.30
2023-07-23T22:21:41.731Z,82.70
2023-07-23T22:24:08.986Z,81.80
2023-07-23T22:26:36.174Z,82.00
2023-07-23T22:29:03.356Z,82.40
2023-07-23T22:31:30.531Z,82.30
2023-07-23T22:34:00.237Z,83.50
2023-07-23T22:36:28.165Z,82.60
2023-07-23T22:38:55.448Z,83.10
2023-07-23T22:41:22.775Z,82.90
2023-07-23T22:43:56.029Z,82.90
2023-07-23T22:46:26.005Z,83.50
2023-07-23T22:48:54.057Z,83.40
2023-07-23T22:51:21.245Z,83.20
2023-07-23T22:53:48.819Z,83.60
2023-07-23T22:56:17.269Z,83.90
2023-07-23T22:58:49.402Z,84.10
2023-07-23T23:01:18.780Z,83.60
2023-07-23T23:03:46.075Z,83.90
2023-07-23T23:06:13.651Z,84.40
2023-07-23T23:08:40.818Z,84.90
2023-07-23T23:11:08.095Z,84.70
2023-07-23T23:13:35.190Z,85.00
2023-07-23T23:16:02.873Z,84.60
2023-07-23T23:18:30.075Z,85.70
2023-07-23T23:20:57.464Z,85.30
2023-07-23T23:23:24.898Z,85.30
2023-07-23T23:25:52.802Z,85.70
2023-07-23T23:28:19.966Z,85.60
2023-07-23T23:30:53.517Z,86.20
2023-07-23T23:33:21.324Z,86.00
2023-07-23T23:35:48.538Z,86.70
2023-07-23T23:38:15.744Z,87.20
2023-07-23T23:40:43.030Z,87.10
2023-07-23T23:43:10.203Z,87.00
2023-07-23T23:45:37.692Z,87.00
2023-07-23T23:48:05.295Z,88.90
2023-07-23T23:50:32.558Z,87.40
2023-07-23T23:52:59.816Z,87.30
2023-07-23T23:55:27.106Z,87.30
2023-07-23T23:57:55.487Z,87.00
